createdAt,value
2023-01-31T00:00:52.411Z,100928.56
2023-01-31T00:03:21.024Z,100932.88
2023-01-31T00:05:51.741Z,100933.69
2023-01-31T00:08:20.236Z,100914.47
2023-01-31T00:10:48.576Z,100925.59
2023-01-31T00:13:16.959Z,100919.53
2023-01-31T00:15:46.889Z,100919.53
2023-01-31T00:18:17.457Z,100911.66
2023-01-31T00:20:45.863Z,100921.16
2023-01-31T00:23:14.436Z,100917.91
2023-01-31T00:25:43.118Z,100921.81
2023-01-31T00:28:11.628Z,100920.34
2023-01-31T00:30:40.020Z,100921.00
2023-01-31T00:33:09.923Z,100928.09
2023-01-31T00:35:41.775Z,100918.38
2023-01-31T00:38:10.190Z,100913.13
2023-01-31T00:40:38.645Z,100917.56
2023-01-31T00:43:07.918Z,100922.81
2023-01-31T00:45:36.449Z,100928.09
2023-01-31T00:48:05.442Z,100930.03
2023-01-31T00:50:35.427Z,100917.56
2023-01-31T00:53:04.567Z,100920.00
2023-01-31T00:55:33.038Z,100916.56
2023-01-31T00:58:01.575Z,100918.53
2023-01-31T01:00:30.785Z,100906.41
2023-01-31T01:02:59.478Z,100911.84
2023-01-31T01:05:27.990Z,100903.31
2023-01-31T01:07:57.727Z,100910.03
2023-01-31T01:10:26.332Z,100914.28
2023-01-31T01:12:54.926Z,100912.66
2023-01-31T01:15:23.320Z,100919.88
2023-01-31T01:17:51.835Z,100916.28
2023-01-31T01:20:21.468Z,100929.41
2023-01-31T01:22:50.042Z,100936.66
2023-01-31T01:25:20.264Z,100932.22
2023-01-31T01:27:48.872Z,100938.94
2023-01-31T01:30:18.288Z,100924.16
2023-01-31T01:32:46.680Z,100938.94
2023-01-31T01:35:16.588Z,100933.69
2023-01-31T01:37:45.060Z,100938.94
2023-01-31T01:40:14.252Z,100943.19
2023-01-31T01:42:44.072Z,100939.75
2023-01-31T01:45:18.794Z,100940.56
2023-01-31T01:47:50.744Z,100951.06
2023-01-31T01:50:27.604Z,100944.19
2023-01-31T01:53:02.057Z,100943.72
2023-01-31T01:55:36.246Z,100949.44
2023-01-31T01:58:11.371Z,100952.06
2023-01-31T02:00:40.756Z,100956.50
2023-01-31T02:03:10.256Z,100950.59
2023-01-31T02:05:44.383Z,100957.47
2023-01-31T02:08:13.517Z,100957.66
2023-01-31T02:10:49.005Z,100949.78
2023-01-31T02:13:20.874Z,100957.00
2023-01-31T02:15:50.159Z,100952.94
2023-01-31T02:18:22.587Z,100947.84
2023-01-31T02:21:34.579Z,100950.66
2023-01-31T02:24:44.381Z,100960.88
2023-01-31T02:27:45.419Z,100958.06
2023-01-31T02:30:39.528Z,100961.69
2023-01-31T02:33:22.956Z,100956.44
2023-01-31T02:36:03.846Z,100959.88
2023-01-31T02:38:50.220Z,100962.31
2023-01-31T02:41:25.941Z,100971.00
2023-01-31T02:44:17.291Z,100955.25
2023-01-31T02:46:53.944Z,100963.31
2023-01-31T02:49:36.807Z,100954.44
2023-01-31T02:52:20.474Z,100954.44
2023-01-31T02:55:21.226Z,100959.69
2023-01-31T02:57:55.139Z,100955.25
2023-01-31T03:00:25.529Z,100945.38
2023-01-31T03:02:54.182Z,100929.81
2023-01-31T03:05:24.533Z,100934.69
2023-01-31T03:07:56.275Z,100939.13
2023-01-31T03:11:01.659Z,100933.75
2023-01-31T03:13:44.635Z,100936.22
2023-01-31T03:16:56.273Z,100937.38
2023-01-31T03:19:30.865Z,100950.84
2023-01-31T03:22:06.449Z,100944.63
2023-01-31T03:24:36.324Z,100942.00
2023-01-31T03:27:05.958Z,100943.78
2023-01-31T03:29:38.656Z,100947.25
2023-01-31T03:32:20.051Z,100955.13
2023-01-31T03:34:48.795Z,100953.94
2023-01-31T03:37:28.159Z,100954.75
2023-01-31T03:40:06.912Z,100963.66
2023-01-31T03:42:44.179Z,100957.75
2023-01-31T03:45:19.598Z,100959.38
2023-01-31T03:47:51.487Z,100980.56
2023-01-31T03:50:26.884Z,100976.97
2023-01-31T03:53:02.209Z,100992.88
2023-01-31T03:55:38.392Z,100983.53
2023-01-31T03:58:09.630Z,100996.50
2023-01-31T04:00:40.405Z,100979.25
2023-01-31T04:03:16.577Z,100985.69
2023-01-31T04:05:46.506Z,100989.94
2023-01-31T04:08:16.763Z,100978.97
2023-01-31T04:10:51.813Z,100969.47
2023-01-31T04:13:22.109Z,100979.97
2023-01-31T04:15:50.589Z,100989.00
2023-01-31T04:18:19.043Z,100999.31
2023-01-31T04:20:47.491Z,100986.69
2023-01-31T04:23:18.879Z,100994.59
2023-01-31T04:25:47.663Z,101004.41
2023-01-31T04:28:17.444Z,101006.41
2023-01-31T04:30:45.827Z,101004.78
2023-01-31T04:33:14.284Z,100990.38
2023-01-31T04:35:42.749Z,100990.69
2023-01-31T04:38:11.250Z,100986.59
2023-01-31T04:40:40.979Z,100990.03
2023-01-31T04:43:09.402Z,100989.72
2023-01-31T04:45:37.820Z,100965.28
2023-01-31T04:48:07.813Z,100981.88
2023-01-31T04:50:36.618Z,100977.94
2023-01-31T04:53:05.310Z,100972.84
2023-01-31T04:55:33.748Z,100978.09
2023-01-31T04:58:05.786Z,100977.59
2023-01-31T05:00:35.545Z,100977.78
2023-01-31T05:03:04.279Z,100972.69
2023-01-31T05:05:36.327Z,100974.03
2023-01-31T05:08:05.738Z,100960.25
2023-01-31T05:10:36.451Z,100957.16
2023-01-31T05:13:06.327Z,100959.13
2023-01-31T05:15:34.822Z,100968.97
2023-01-31T05:18:04.555Z,100971.75
2023-01-31T05:20:39.799Z,100966.69
2023-01-31T05:23:08.977Z,100969.31
2023-01-31T05:25:38.486Z,100965.88
2023-01-31T05:28:08.372Z,100962.56
2023-01-31T05:30:38.036Z,100959.44
2023-01-31T05:33:06.557Z,100955.34
2023-01-31T05:35:35.956Z,100943.56
2023-01-31T05:38:04.414Z,100955.53
2023-01-31T05:40:32.845Z,100964.38
2023-01-31T05:43:02.192Z,100961.91
2023-01-31T05:45:32.645Z,100967.50
2023-01-31T05:48:01.395Z,100966.84
2023-01-31T05:50:30.985Z,100960.31
2023-01-31T05:53:11.195Z,100964.75
2023-01-31T05:55:39.941Z,100947.03
2023-01-31T05:58:08.439Z,100969.50
2023-01-31T06:00:38.241Z,100963.91
2023-01-31T06:03:06.665Z,100963.91
2023-01-31T06:05:35.115Z,100971.47
2023-01-31T06:08:03.639Z,100960.97
2023-01-31T06:10:32.101Z,100961.94
2023-01-31T06:13:00.558Z,100968.50
2023-01-31T06:15:29.142Z,100981.78
2023-01-31T06:18:00.919Z,100975.72
2023-01-31T06:20:29.474Z,100978.69
2023-01-31T06:22:57.885Z,100978.69
2023-01-31T06:25:29.613Z,100979.81
2023-01-31T06:28:00.715Z,100985.25
2023-01-31T06:30:29.259Z,100973.94
2023-01-31T06:33:01.333Z,100984.56
2023-01-31T06:35:30.525Z,100980.63
2023-01-31T06:37:59.186Z,100989.50
2023-01-31T06:40:27.802Z,100980.97
2023-01-31T06:42:57.637Z,100970.66
2023-01-31T06:45:26.327Z,100977.22
2023-01-31T06:47:54.829Z,100973.91
2023-01-31T06:50:24.654Z,100985.22
2023-01-31T06:52:53.136Z,100979.66
2023-01-31T06:55:21.850Z,100981.28
2023-01-31T06:57:50.921Z,100975.91
2023-01-31T07:00:20.914Z,100977.69
2023-01-31T07:02:49.781Z,100968.19
2023-01-31T07:05:18.989Z,100975.06
2023-01-31T07:07:51.297Z,100982.78
2023-01-31T07:10:20.133Z,100986.38
2023-01-31T07:12:48.528Z,100993.09
2023-01-31T07:15:17.222Z,100983.59
2023-01-31T07:17:45.975Z,100989.66
2023-01-31T07:20:15.260Z,101007.19
2023-01-31T07:22:43.672Z,101013.72
2023-01-31T07:25:13.465Z,101012.09
2023-01-31T07:27:41.944Z,101022.59
2023-01-31T07:30:12.749Z,101018.34
2023-01-31T07:32:43.998Z,101019.47
2023-01-31T07:35:12.622Z,101027.34
2023-01-31T07:37:43.465Z,101032.72
2023-01-31T07:40:17.323Z,101030.28
2023-01-31T07:42:45.917Z,101031.91
2023-01-31T07:45:23.407Z,101030.94
2023-01-31T07:47:52.243Z,101043.06
2023-01-31T07:50:21.720Z,101037.16
2023-01-31T07:52:50.931Z,101037.31
2023-01-31T07:55:21.062Z,101042.69
2023-01-31T07:57:49.903Z,101050.41
2023-01-31T08:00:36.729Z,101041.75
2023-01-31T08:03:23.036Z,101031.59
2023-01-31T08:05:51.680Z,101042.88
2023-01-31T08:08:20.174Z,101049.75
2023-01-31T08:10:49.959Z,101058.28
2023-01-31T08:13:18.470Z,101051.06
2023-01-31T08:15:46.820Z,101049.78
2023-01-31T08:18:15.173Z,101053.03
2023-01-31T08:20:43.564Z,101055.66
2023-01-31T08:23:12.088Z,101052.72
2023-01-31T08:25:40.473Z,101050.78
2023-01-31T08:28:10.535Z,101051.75
2023-01-31T08:30:42.272Z,101055.66
2023-01-31T08:33:12.346Z,101050.44
2023-01-31T08:35:40.648Z,101045.84
2023-01-31T08:38:16.314Z,101045.03
2023-01-31T08:40:45.390Z,101050.78
2023-01-31T08:43:15.422Z,101034.88
2023-01-31T08:45:43.764Z,101036.38
2023-01-31T08:48:12.679Z,101031.94
2023-01-31T08:50:41.551Z,101044.88
2023-01-31T08:53:10.225Z,101038.66
2023-01-31T08:55:38.597Z,101030.78
2023-01-31T08:58:06.952Z,101040.97
2023-01-31T09:00:36.720Z,101034.72
2023-01-31T09:03:05.262Z,101028.50
2023-01-31T09:05:33.738Z,101028.34
2023-01-31T09:08:02.058Z,101022.91
2023-01-31T09:10:30.391Z,101019.97
2023-01-31T09:13:00.782Z,101015.38
2023-01-31T09:15:29.097Z,101027.50
2023-01-31T09:17:58.917Z,101025.53
2023-01-31T09:20:27.213Z,101029.81
2023-01-31T09:22:55.511Z,101026.19
2023-01-31T09:25:41.250Z,101032.09
2023-01-31T09:28:12.274Z,101019.63
2023-01-31T09:30:40.649Z,101021.94
2023-01-31T09:33:10.395Z,101011.13
2023-01-31T09:35:38.703Z,101011.94
2023-01-31T09:38:07.035Z,101003.75
2023-01-31T09:40:40.634Z,101002.75
2023-01-31T09:43:13.911Z,101002.56
2023-01-31T09:45:44.241Z,101005.03
2023-01-31T09:48:20.444Z,101000.44
2023-01-31T09:50:55.975Z,100992.25
2023-01-31T09:53:30.878Z,101004.53
2023-01-31T09:56:17.170Z,100995.69
2023-01-31T09:58:57.581Z,101015.53
2023-01-31T10:01:31.067Z,101013.91
2023-01-31T10:04:24.486Z,101024.91
2023-01-31T10:07:00.266Z,101020.28
2023-01-31T10:09:33.738Z,101025.19
2023-01-31T10:12:12.219Z,101025.88
2023-01-31T10:14:50.286Z,101015.19
2023-01-31T10:17:22.771Z,101019.28
2023-01-31T10:19:58.928Z,101013.06
2023-01-31T10:22:37.132Z,101006.00
2023-01-31T10:25:28.133Z,101010.91
2023-01-31T10:28:02.748Z,100999.09
2023-01-31T10:30:43.168Z,100979.72
2023-01-31T10:33:23.810Z,100972.69
2023-01-31T10:35:55.837Z,100979.38
2023-01-31T10:38:30.210Z,100989.56
2023-01-31T10:41:08.164Z,100989.41
2023-01-31T10:43:43.223Z,100979.38
2023-01-31T10:46:14.042Z,100972.00
2023-01-31T10:48:47.394Z,100976.06
2023-01-31T10:51:42.783Z,100973.28
2023-01-31T10:54:36.670Z,100965.88
2023-01-31T10:57:05.093Z,100977.84
2023-01-31T10:59:37.696Z,100972.75
2023-01-31T11:02:06.352Z,100980.47
2023-01-31T11:04:41.040Z,100975.06
2023-01-31T11:07:11.638Z,100971.44
2023-01-31T11:09:44.641Z,100975.53
2023-01-31T11:12:13.136Z,100976.16
2023-01-31T11:14:41.869Z,100971.56
2023-01-31T11:17:16.483Z,100952.19
2023-01-31T11:19:48.357Z,100937.72
2023-01-31T11:22:27.747Z,100924.59
2023-01-31T11:24:57.792Z,100926.06
2023-01-31T11:27:29.047Z,100914.41
2023-01-31T11:30:00.256Z,100892.38
2023-01-31T11:32:31.988Z,100877.63
2023-01-31T11:35:04.334Z,100885.97
2023-01-31T11:37:35.475Z,100892.06
2023-01-31T11:40:19.873Z,100910.25
2023-01-31T11:42:54.639Z,100905.19
2023-01-31T11:45:27.619Z,100887.41
2023-01-31T11:47:58.765Z,100876.56
2023-01-31T11:50:38.359Z,100861.63
2023-01-31T11:53:20.395Z,100849.69
2023-01-31T11:55:51.015Z,100836.34
2023-01-31T11:58:22.522Z,100842.41
2023-01-31T12:00:57.509Z,100836.34
2023-01-31T12:03:26.971Z,100840.78
2023-01-31T12:06:03.452Z,100851.50
2023-01-31T12:08:37.257Z,100839.78
2023-01-31T12:11:08.397Z,100819.44
2023-01-31T12:13:49.760Z,100828.28
2023-01-31T12:16:22.234Z,100828.28
2023-01-31T12:19:02.451Z,100840.44
2023-01-31T12:21:50.592Z,100843.06
2023-01-31T12:24:37.460Z,100831.75
2023-01-31T12:27:20.506Z,100822.06
2023-01-31T12:30:04.880Z,100819.44
2023-01-31T12:32:53.289Z,100807.94
2023-01-31T12:35:44.505Z,100802.66
2023-01-31T12:38:36.697Z,100815.63
2023-01-31T12:41:22.046Z,100813.84
2023-01-31T12:44:15.994Z,100825.97
2023-01-31T12:47:10.882Z,100825.16
2023-01-31T12:49:58.381Z,100831.22
2023-01-31T12:52:34.332Z,100824.97
2023-01-31T12:55:18.200Z,100796.88
2023-01-31T12:58:04.700Z,100795.06
2023-01-31T13:00:42.904Z,100799.50
2023-01-31T13:03:38.147Z,100807.56
2023-01-31T13:06:15.412Z,100781.94
2023-01-31T13:09:06.701Z,100783.41
2023-01-31T13:11:41.568Z,100771.06
2023-01-31T13:14:17.926Z,100760.41
2023-01-31T13:16:48.817Z,100749.69
2023-01-31T13:19:24.499Z,100743.44
2023-01-31T13:21:57.702Z,100751.16
2023-01-31T13:24:30.237Z,100762.28
2023-01-31T13:27:02.370Z,100736.69
2023-01-31T13:29:36.609Z,100741.56
2023-01-31T13:32:11.394Z,100734.69
2023-01-31T13:34:51.503Z,100734.25
2023-01-31T13:37:21.363Z,100738.84
2023-01-31T13:39:53.856Z,100719.81
2023-01-31T13:42:22.297Z,100730.50
2023-01-31T13:44:52.079Z,100729.69
2023-01-31T13:47:26.668Z,100725.25
2023-01-31T13:50:00.200Z,100728.06
2023-01-31T13:52:32.948Z,100736.91
2023-01-31T13:55:05.341Z,100716.91
2023-01-31T13:57:38.021Z,100717.72
2023-01-31T14:00:19.857Z,100728.41
2023-01-31T14:03:02.353Z,100729.59
2023-01-31T14:06:00.642Z,100722.72
2023-01-31T14:09:00.087Z,100728.13
2023-01-31T14:11:45.348Z,100736.19
2023-01-31T14:14:22.382Z,100728.31
2023-01-31T14:16:53.287Z,100726.31
2023-01-31T14:20:07.248Z,100735.84
2023-01-31T14:22:37.184Z,100726.16
2023-01-31T14:25:14.283Z,100710.38
2023-01-31T14:28:02.358Z,100726.31
2023-01-31T14:30:41.883Z,100720.25
2023-01-31T14:33:23.851Z,100715.78
2023-01-31T14:36:08.780Z,100736.00
2023-01-31T14:38:58.995Z,100739.44
2023-01-31T14:41:48.793Z,100739.63
2023-01-31T14:44:30.714Z,100733.56
2023-01-31T14:47:16.070Z,100738.81
2023-01-31T14:50:21.051Z,100734.56
2023-01-31T14:53:06.809Z,100735.19
2023-01-31T14:56:00.953Z,100738.00
2023-01-31T14:58:34.216Z,100747.69
2023-01-31T15:01:06.643Z,100733.72
2023-01-31T15:03:38.426Z,100731.09
2023-01-31T15:06:16.387Z,100725.84
2023-01-31T15:08:49.205Z,100730.13
2023-01-31T15:11:43.408Z,100739.34
2023-01-31T15:14:34.710Z,100742.97
2023-01-31T15:17:23.711Z,100735.06
2023-01-31T15:20:15.532Z,100737.53
2023-01-31T15:22:46.787Z,100731.09
2023-01-31T15:25:29.446Z,100723.41
2023-01-31T15:27:58.624Z,100726.84
2023-01-31T15:30:30.039Z,100732.09
2023-01-31T15:33:03.545Z,100732.91
2023-01-31T15:35:36.078Z,100729.81
2023-01-31T15:38:11.236Z,100731.63
2023-01-31T15:40:39.574Z,100730.81
2023-01-31T15:43:17.706Z,100733.28
2023-01-31T15:45:47.858Z,100729.81
2023-01-31T15:48:18.435Z,100729.47
2023-01-31T15:50:52.644Z,100734.72
2023-01-31T15:53:25.754Z,100733.72
2023-01-31T15:55:58.485Z,100744.06
2023-01-31T15:58:29.765Z,100733.72
2023-01-31T16:01:01.438Z,100745.69
2023-01-31T16:03:32.345Z,100739.63
2023-01-31T16:06:01.646Z,100734.03
2023-01-31T16:08:34.943Z,100733.84
2023-01-31T16:11:05.709Z,100739.91
2023-01-31T16:13:36.939Z,100734.28
2023-01-31T16:16:10.440Z,100739.38
2023-01-31T16:18:39.693Z,100735.75
2023-01-31T16:21:16.942Z,100745.47
2023-01-31T16:23:46.716Z,100748.06
2023-01-31T16:26:21.693Z,100742.81
2023-01-31T16:28:54.828Z,100734.13
2023-01-31T16:31:25.335Z,100752.53
2023-01-31T16:33:57.463Z,100745.47
2023-01-31T16:36:29.024Z,100739.38
2023-01-31T16:39:02.313Z,100731.31
2023-01-31T16:41:45.657Z,100731.16
2023-01-31T16:44:21.104Z,100733.78
2023-01-31T16:46:51.610Z,100729.34
2023-01-31T16:49:24.453Z,100730.97
2023-01-31T16:51:57.318Z,100733.59
2023-01-31T16:54:31.085Z,100733.59
2023-01-31T16:57:23.353Z,100732.59
2023-01-31T16:59:53.711Z,100730.41
2023-01-31T17:02:33.740Z,100730.41
2023-01-31T17:05:10.867Z,100710.03
2023-01-31T17:07:39.216Z,100718.94
2023-01-31T17:10:11.319Z,100724.19
2023-01-31T17:12:41.167Z,100722.38
2023-01-31T17:15:15.312Z,100735.50
2023-01-31T17:17:43.869Z,100729.44
2023-01-31T17:20:15.980Z,100737.94
2023-01-31T17:22:50.439Z,100721.19
2023-01-31T17:25:26.493Z,100721.81
2023-01-31T17:27:54.929Z,100730.16
2023-01-31T17:30:23.887Z,100729.97
2023-01-31T17:32:52.285Z,100723.09
2023-01-31T17:35:27.633Z,100725.53
2023-01-31T17:37:56.114Z,100728.16
2023-01-31T17:40:25.944Z,100719.91
2023-01-31T17:43:00.264Z,100719.91
2023-01-31T17:45:29.294Z,100725.81
2023-01-31T17:47:57.831Z,100719.56
2023-01-31T17:50:28.273Z,100722.19
2023-01-31T17:52:57.673Z,100727.28
2023-01-31T17:55:27.429Z,100718.56
2023-01-31T17:57:55.769Z,100728.91
2023-01-31T18:00:24.349Z,100715.94
2023-01-31T18:02:53.389Z,100722.84
2023-01-31T18:05:30.278Z,100727.09
2023-01-31T18:08:05.854Z,100734.63
2023-01-31T18:10:35.570Z,100736.25
2023-01-31T18:13:03.888Z,100732.59
2023-01-31T18:15:32.305Z,100739.69
2023-01-31T18:18:00.682Z,100742.31
2023-01-31T18:20:29.096Z,100735.88
2023-01-31T18:22:57.465Z,100730.63
2023-01-31T18:25:25.739Z,100732.25
2023-01-31T18:27:55.430Z,100719.91
2023-01-31T18:30:24.045Z,100728.81
2023-01-31T18:32:52.575Z,100720.09
2023-01-31T18:35:21.625Z,100717.69
2023-01-31T18:37:50.252Z,100718.13
2023-01-31T18:40:18.993Z,100709.03
2023-01-31T18:42:47.297Z,100699.53
2023-01-31T18:45:17.124Z,100697.72
2023-01-31T18:47:45.454Z,100708.06
2023-01-31T18:50:13.786Z,100714.94
2023-01-31T18:52:43.908Z,100718.38
2023-01-31T18:55:12.600Z,100722.84
2023-01-31T18:57:40.884Z,100717.38
2023-01-31T19:00:11.904Z,100725.28
2023-01-31T19:02:41.647Z,100718.19
2023-01-31T19:05:10.473Z,100721.47
2023-01-31T19:07:38.813Z,100706.50
2023-01-31T19:10:08.301Z,100708.13
2023-01-31T19:12:39.161Z,100709.78
2023-01-31T19:15:09.949Z,100715.84
2023-01-31T19:17:38.808Z,100719.28
2023-01-31T19:20:10.662Z,100720.31
2023-01-31T19:22:38.982Z,100717.47
2023-01-31T19:25:11.021Z,100713.84
2023-01-31T19:27:41.362Z,100713.03
2023-01-31T19:30:11.681Z,100708.22
2023-01-31T19:32:40.080Z,100703.59
2023-01-31T19:35:10.843Z,100709.69
2023-01-31T19:37:39.193Z,100723.44
2023-01-31T19:40:09.201Z,100707.88
2023-01-31T19:42:37.841Z,100710.28
2023-01-31T19:45:11.279Z,100707.06
2023-01-31T19:47:39.577Z,100715.56
2023-01-31T19:50:10.969Z,100709.47
2023-01-31T19:52:39.269Z,100710.69
2023-01-31T19:55:08.875Z,100702.59
2023-01-31T19:57:37.200Z,100715.56
2023-01-31T20:00:07.622Z,100706.03
2023-01-31T20:02:42.123Z,100698.16
2023-01-31T20:05:14.297Z,100695.38
2023-01-31T20:07:43.369Z,100702.25
2023-01-31T20:10:14.832Z,100703.88
2023-01-31T20:12:43.239Z,100702.84
2023-01-31T20:15:12.520Z,100699.06
2023-01-31T20:17:40.844Z,100695.41
2023-01-31T20:20:12.810Z,100691.16
2023-01-31T20:22:42.298Z,100680.66
2023-01-31T20:25:11.387Z,100687.53
2023-01-31T20:27:39.759Z,100686.56
2023-01-31T20:30:09.995Z,100683.09
2023-01-31T20:32:38.363Z,100678.22
2023-01-31T20:35:07.735Z,100674.78
2023-01-31T20:37:37.440Z,100673.94
2023-01-31T20:40:06.953Z,100681.66
2023-01-31T20:42:35.266Z,100679.19
2023-01-31T20:45:03.804Z,100680.03
2023-01-31T20:47:32.138Z,100683.63
2023-01-31T20:50:00.683Z,100677.56
2023-01-31T20:52:29.043Z,100679.38
2023-01-31T20:54:58.765Z,100676.41
2023-01-31T20:57:27.133Z,100672.75
2023-01-31T20:59:55.430Z,100676.19
2023-01-31T21:02:23.782Z,100672.75
2023-01-31T21:04:52.117Z,100686.72
2023-01-31T21:07:20.414Z,100681.44
2023-01-31T21:09:48.765Z,100691.16
2023-01-31T21:12:18.426Z,100685.09
2023-01-31T21:14:46.719Z,100704.31
2023-01-31T21:17:15.082Z,100702.69
2023-01-31T21:19:43.602Z,100714.84
2023-01-31T21:22:11.967Z,100719.09
2023-01-31T21:24:40.333Z,100726.97
2023-01-31T21:27:08.789Z,100725.34
2023-01-31T21:29:38.531Z,100724.34
2023-01-31T21:32:07.360Z,100720.75
2023-01-31T21:34:35.773Z,100727.63
2023-01-31T21:37:04.607Z,100722.81
2023-01-31T21:39:33.259Z,100705.22
2023-01-31T21:42:15.943Z,100706.84
2023-01-31T21:44:46.601Z,100720.38
2023-01-31T21:47:16.603Z,100722.16
2023-01-31T21:49:44.884Z,100718.34
2023-01-31T21:52:13.188Z,100722.00
2023-01-31T21:54:41.506Z,100720.19
2023-01-31T21:57:09.843Z,100704.19
2023-01-31T21:59:39.048Z,100703.22
2023-01-31T22:02:09.855Z,100687.44
2023-01-31T22:04:38.203Z,100686.44
2023-01-31T22:07:06.512Z,100675.91
2023-01-31T22:09:34.788Z,100675.72
2023-01-31T22:12:03.152Z,100676.38
2023-01-31T22:14:31.419Z,100679.00
2023-01-31T22:16:59.701Z,100666.66
2023-01-31T22:19:29.390Z,100667.47
2023-01-31T22:21:59.561Z,100668.28
2023-01-31T22:24:28.001Z,100666.66
2023-01-31T22:26:56.323Z,100663.22
2023-01-31T22:29:24.637Z,100652.88
2023-01-31T22:31:54.847Z,100655.50
2023-01-31T22:34:23.178Z,100659.13
2023-01-31T22:36:52.880Z,100652.03
2023-01-31T22:39:21.237Z,100635.44
2023-01-31T22:41:49.587Z,100644.78
2023-01-31T22:44:17.926Z,100655.97
2023-01-31T22:46:46.724Z,100633.72
2023-01-31T22:49:15.034Z,100638.81
2023-01-31T22:51:43.374Z,100629.91
2023-01-31T22:54:14.686Z,100624.00
2023-01-31T22:56:43.051Z,100629.09
2023-01-31T22:59:11.533Z,100628.06
2023-01-31T23:01:40.395Z,100636.63
2023-01-31T23:04:12.566Z,100624.44
2023-01-31T23:06:40.926Z,100607.84
2023-01-31T23:09:09.326Z,100607.03
2023-01-31T23:11:39.291Z,100608.84
2023-01-31T23:14:07.638Z,100612.28
2023-01-31T23:16:53.697Z,100624.44
2023-01-31T23:19:21.970Z,100606.22
2023-01-31T23:21:50.315Z,100597.69
2023-01-31T23:24:19.075Z,100604.59
2023-01-31T23:26:48.957Z,100602.94
2023-01-31T23:29:17.304Z,100607.03
2023-01-31T23:31:46.165Z,100599.94
2023-01-31T23:34:14.718Z,100609.47
2023-01-31T23:36:43.147Z,100613.09
2023-01-31T23:39:12.011Z,100616.53
2023-01-31T23:41:40.303Z,100624.44
2023-01-31T23:44:10.397Z,100614.72
2023-01-31T23:46:38.878Z,100616.19
2023-01-31T23:49:07.554Z,100615.16
2023-01-31T23:51:36.109Z,100617.81
2023-01-31T23:54:04.796Z,100616.81
2023-01-31T23:56:33.178Z,100605.31
2023-01-31T23:59:01.566Z,100599.84
